Current | Forecast
Updated: 12:00 AM JST on December 14, 2017
Observed at Hyakuri AB, Japan
Temperature 27°F
Windchill 21°F
Humidity 69%
Dew Point 18°F
Wind WNW at 5 mph
Pressure 30.01 in (Steady)
Conditions Partly Cloudy
Visibility 6.2 miles
UV 0 out of 16
Clouds (FEW) : 3000 ft
Yesterday's Maximum 50°F
Yesterday's Minimum 23°F approx.
Yesterday's Heating Degree Days 29 approx.
Sunrise6:41 AM JST
Sunset4:21 PM JST
Moon Rise2:35 AM JST
Moon Set2:04 PM JST
Moon PhaseMoon Phase
Waning Crescent
Raw METARMETAR RJAH 131500Z 29004KT 9999 FEW030 M03/M08 Q1016


Monday
. High: 68° F.
Tuesday
. High: 69° F.
Wednesday
. High: 62° F.
Thursday
. High: 68° F.
Friday
. High: 69° F.
Saturday
. High: 69° F.
Sunday
. High: 68° F.
Monday
. High: 64° F.

Units: English | Metric

Find the Weather for any City, State or Zipcode, or Country:

U.S. State List | Severe Weather | Tropical Storms | Ski Conditions
United States | Canada | Central America | South America | Asia | Europe | Australia | Africa | Islands

Weather Underground

© Copyright 2017
The Weather Company, LLC